Lacona, IA (50139)

6:11 PM CDT on August 27, 2014 (GMT -0500)
House in Medora | Change Station
CLOSE
Current Station
Personal Weather Station
Location: New Virginia, IA
Elevation: 1033 ft
Nearby Weather Stations

Elev 1033 ft 41.18 °N, 93.59 °W | Updated 13 seconds ago

Mostly Cloudy
Mostly Cloudy
73.2 °F
Feels Like 72 °F
N
0.9
Wind Variable Wind from ESE
Gusts 4.0 mph

Today
High -- | Low -- °F
--% Chance of Precip.
Yesterday
High -- | Low -- °F
Precip. -- in
6:35 AM 7:54 PM
Waxing Crescent, 5% visible
Pressure 30.09 in
Visibility 10.0 miles
Clouds Scattered Clouds 1300 ft
Heat Index 72 °F
Dew Point 68 °F
Humidity 85%
Rainfall 0.15 in
Snow Depth Not available.
UV 0.0 out of 12
Pollen 4.30 out of 12
Air Quality Not available.
Flu Activity Not available.
METAR KCNC 272255Z AUTO 09006KT 10SM SCT013 23/21 A3009 RMK AO2

More Conditions Fewer Conditions

Pressure 30.09 in
Visibility 10.0 miles
Clouds Scattered Clouds 1300 ft
Heat Index 72 °F
Dew Point 68 °F
Humidity 85%
Rainfall 0.15 in
Snow Depth Not available.
UV 0.0 out of 12
Pollen 4.30 out of 12
Air Quality Not available.
Flu Activity Not available.
METAR KCNC 272255Z AUTO 09006KT 10SM SCT013 23/21 A3009 RMK AO2

More Conditions Fewer Conditions

10-Day Weather Forecast

Almanac

Astronomy

Aug. 27, 2014 Rise Set
Actual Time 6:35 AM CDT 7:54 PM CDT
Civil Twilight 6:06 AM CDT 8:22 PM CDT
Nautical Twilight 5:31 AM CDT 8:57 PM CDT
Astronomical Twilight 4:55 AM CDT 9:33 PM CDT
Moon 8:33 AM CDT 8:45 PM CDT
Length of Visible Light 14h 16m
Length of Day
13h 19m
Tomorrow will be 2m 35s shorter.
Waxing Crescent, 5% of the Moon is Illuminated
Today
Waxing Crescent
Sep 2
First Quarter
Sep 8
Full
Sep 15
Last Quarter
Sep 24
New

Today's Extremes

State Highs State Lows

Community

WunderPhotos

Upload Photos

1,747,815 photos uploaded!

Nearby

Snow Depth

Station Depth Elevation
No new snow has been reported.

Earthquake Activity

City Distance Mag. Time & Date
No recent earthquake activity has been reported nearby.
Minimum magnitude displayed is 2.5.

Coastal Water Temperatures

Place Temperature
No Stations Reporting

Nearby Weather Stations